Time;durP1;ratioP1;P1;durP2;ratioP2;P2;SDS_P1;SDS_P2;PMS_P1;PMS_P2;Temp;Humidity;BMP_temperature;BMP_pressure;BME280_temperature;BME280_humidity;BME280_pressure;Samples;Min_cycle;Max_cycle;Signal;HPM_P1;HPM_P2
2022/01/18 00:02:26;;;;;;;105.75;15.82;;;7.20;99.90;;;;;;4956512;28;20051;-64
2022/01/18 00:04:51;;;;;;;101.90;12.00;;;7.20;99.90;;;;;;4971092;28;20043;-65
2022/01/18 00:07:17;;;;;;;114.15;14.15;;;7.20;99.90;;;;;;4955168;28;20406;-64
2022/01/18 00:09:43;;;;;;;110.88;12.50;;;7.20;99.90;;;;;;4960350;28;20054;-64
2022/01/18 00:12:43;;;;;;;106.53;13.25;;;7.10;99.90;;;;;;4968155;28;20410;-64
2022/01/18 00:15:28;;;;;;;82.75;11.18;;;7.10;99.90;;;;;;4974711;28;20069;-64
2022/01/18 00:18:05;;;;;;;93.78;14.00;;;7.00;99.90;;;;;;4955659;28;20178;-64
2022/01/18 00:23:18;;;;;;;96.70;11.88;;;6.90;99.90;;;;;;4938800;28;20133;-65
2022/01/18 00:25:48;;;;;;;88.82;10.95;;;6.80;99.90;;;;;;4951714;28;20444;-64
2022/01/18 00:28:14;;;;;;;69.80;9.98;;;6.80;99.90;;;;;;4955589;28;20495;-64
2022/01/18 00:33:26;;;;;;;111.60;14.70;;;6.70;99.90;;;;;;4968004;28;20258;-64
2022/01/18 00:36:00;;;;;;;96.35;13.82;;;6.60;99.90;;;;;;4968728;28;20058;-64
2022/01/18 00:38:33;;;;;;;99.82;13.93;;;6.60;99.90;;;;;;4963007;28;20116;-64
2022/01/18 00:40:59;;;;;;;108.15;14.05;;;6.60;99.90;;;;;;4973395;28;20109;-65
2022/01/18 00:43:25;;;;;;;90.32;13.13;;;6.60;99.90;;;;;;4967582;28;20042;-64
2022/01/18 00:45:51;;;;;;;93.63;13.82;;;6.50;99.90;;;;;;4968000;28;20497;-64
2022/01/18 00:48:17;;;;;;;100.82;17.50;;;6.40;99.90;;;;;;4968699;28;20038;-64
2022/01/18 00:50:45;;;;;;;89.40;14.63;;;6.30;99.90;;;;;;4950277;28;20726;-65
2022/01/18 00:53:15;;;;;;;95.13;11.82;;;6.30;99.90;;;;;;4967490;28;20126;-64
2022/01/18 00:55:52;;;;;;;98.65;13.75;;;6.30;99.90;;;;;;4950886;28;20078;-64
2022/01/18 00:58:17;;;;;;;100.90;15.65;;;6.20;99.90;;;;;;4969139;28;20053;-64
2022/01/18 01:00:43;;;;;;;105.05;16.45;;;6.10;99.90;;;;;;4966672;28;20034;-64
2022/01/18 01:03:09;;;;;;;104.60;17.65;;;6.10;99.90;;;;;;4948527;28;20113;-64
2022/01/18 01:05:35;;;;;;;100.95;17.85;;;6.10;99.90;;;;;;4967293;28;20041;-64
2022/01/18 01:08:01;;;;;;;107.13;16.40;;;6.20;99.90;;;;;;4956351;28;20043;-64
2022/01/18 01:10:27;;;;;;;91.70;14.70;;;6.10;99.90;;;;;;4969082;28;20047;-64
2022/01/18 01:12:54;;;;;;;95.70;14.93;;;6.10;99.90;;;;;;4967315;28;20042;-64
2022/01/18 01:15:24;;;;;;;112.90;15.75;;;6.10;99.90;;;;;;4967806;28;20485;-64
2022/01/18 01:18:10;;;;;;;114.35;15.55;;;6.10;99.90;;;;;;4949188;28;20051;-64
2022/01/18 01:37:14;;;;;;;99.60;10.45;;;5.90;99.90;;;;;;4963653;28;20481;-64
2022/01/18 01:45:11;;;;;;;92.50;8.10;;;5.80;99.90;;;;;;4965690;28;20046;-64
2022/01/18 01:47:38;;;;;;;91.53;9.10;;;5.80;99.90;;;;;;4962979;28;20051;-64
2022/01/18 01:50:16;;;;;;;90.97;8.80;;;5.90;99.90;;;;;;4963102;28;20142;-64
2022/01/18 01:52:50;;;;;;;96.55;8.10;;;5.90;99.90;;;;;;4944861;28;20078;-65
2022/01/18 01:55:18;;;;;;;90.82;8.63;;;6.00;99.90;;;;;;4945267;28;20612;-64
2022/01/18 01:57:44;;;;;;;95.00;9.25;;;6.10;99.90;;;;;;4944845;28;20047;-64
2022/01/18 02:00:14;;;;;;;96.38;10.70;;;6.10;99.90;;;;;;4945525;28;20035;-64
2022/01/18 02:02:40;;;;;;;94.45;8.90;;;6.10;99.90;;;;;;4930092;29;20043;-64
2022/01/18 02:05:07;;;;;;;89.70;7.50;;;6.10;99.90;;;;;;4948097;28;20050;-64
2022/01/18 02:07:33;;;;;;;96.70;9.05;;;6.10;99.90;;;;;;4946203;28;20119;-64
2022/01/18 02:09:58;;;;;;;81.28;8.63;;;6.20;99.90;;;;;;4929492;28;20174;-64
2022/01/18 02:12:24;;;;;;;86.82;8.68;;;6.20;99.90;;;;;;4930263;28;20055;-64
2022/01/18 02:14:58;;;;;;;86.32;8.60;;;6.30;99.90;;;;;;4944621;28;20051;-64
2022/01/18 02:22:56;;;;;;;90.50;7.60;;;6.40;99.90;;;;;;4947633;28;20109;-64
2022/01/18 02:25:23;;;;;;;87.55;8.40;;;6.50;99.90;;;;;;4945089;28;20043;-64
2022/01/18 02:27:49;;;;;;;80.45;7.63;;;6.50;99.90;;;;;;4928447;28;20050;-64
2022/01/18 02:30:15;;;;;;;82.80;8.52;;;6.50;99.90;;;;;;4929326;28;20051;-64
2022/01/18 02:32:41;;;;;;;86.18;9.57;;;6.50;99.90;;;;;;4933788;29;20557;-64
2022/01/18 02:35:07;;;;;;;85.07;10.55;;;6.50;99.90;;;;;;4927853;29;20421;-64
2022/01/18 02:37:33;;;;;;;90.75;9.15;;;6.50;99.90;;;;;;4955233;28;20058;-64
2022/01/18 02:39:59;;;;;;;85.60;9.57;;;6.50;99.90;;;;;;4935641;28;20491;-64
2022/01/18 02:42:30;;;;;;;75.50;8.05;;;6.60;99.90;;;;;;4943175;28;20055;-64
2022/01/18 02:44:56;;;;;;;69.45;6.63;;;6.60;99.90;;;;;;4937261;28;20106;-64
2022/01/18 02:47:23;;;;;;;67.72;7.15;;;6.70;99.90;;;;;;4932494;28;20651;-65
2022/01/18 02:49:49;;;;;;;62.67;6.47;;;6.70;99.90;;;;;;4934286;28;20062;-64
2022/01/18 02:52:16;;;;;;;68.35;7.57;;;6.70;99.90;;;;;;4936671;29;20103;-64
2022/01/18 02:54:43;;;;;;;49.17;6.40;;;6.70;99.90;;;;;;4965711;28;20130;-64
2022/01/18 02:57:15;;;;;;;55.10;6.10;;;6.70;99.90;;;;;;4951210;28;20513;-65
2022/01/18 02:59:52;;;;;;;59.20;6.72;;;6.70;99.90;;;;;;4981438;28;20053;-64
2022/01/18 03:05:12;;;;;;;49.08;5.20;;;6.70;99.90;;;;;;4973671;28;20496;-64
2022/01/18 03:07:40;;;;;;;58.55;7.15;;;6.70;99.90;;;;;;4952135;28;20055;-64
2022/01/18 03:10:09;;;;;;;60.45;7.20;;;6.70;99.90;;;;;;4960176;28;20510;-64
2022/01/18 03:12:35;;;;;;;62.43;6.13;;;6.70;99.90;;;;;;4970063;28;20042;-64
2022/01/18 03:15:01;;;;;;;69.03;6.75;;;6.70;99.90;;;;;;4969490;28;20449;-64
2022/01/18 03:17:27;;;;;;;49.30;6.03;;;6.70;99.90;;;;;;4952478;28;20121;-64
2022/01/18 03:19:53;;;;;;;50.05;5.40;;;6.70;99.90;;;;;;4969730;28;20127;-64
2022/01/18 03:22:19;;;;;;;52.65;5.57;;;6.70;99.90;;;;;;4977545;28;20057;-64
2022/01/18 03:25:01;;;;;;;56.17;6.32;;;6.80;99.90;;;;;;4971532;28;20382;-64
2022/01/18 03:30:12;;;;;;;47.78;5.30;;;6.80;99.90;;;;;;4969394;28;20529;-64
2022/01/18 03:32:39;;;;;;;44.38;5.10;;;6.80;99.90;;;;;;4951820;28;20046;-64
2022/01/18 03:35:07;;;;;;;43.60;5.03;;;6.70;99.90;;;;;;4969182;28;20038;-64
2022/01/18 03:37:33;;;;;;;45.72;6.03;;;6.80;99.90;;;;;;4969681;28;20046;-64
2022/01/18 03:39:58;;;;;;;50.47;4.75;;;6.80;99.90;;;;;;4951173;28;20043;-64
2022/01/18 03:42:38;;;;;;;54.22;5.88;;;6.80;99.90;;;;;;4965815;28;20042;-64
2022/01/18 03:45:06;;;;;;;46.83;5.43;;;6.80;99.90;;;;;;4971090;28;20474;-64
2022/01/18 03:47:33;;;;;;;49.08;5.85;;;6.80;99.90;;;;;;4975018;28;20043;-64
2022/01/18 03:50:00;;;;;;;34.65;5.40;;;6.70;99.90;;;;;;4972175;28;20384;-64
2022/01/18 03:52:26;;;;;;;39.88;4.75;;;6.70;99.90;;;;;;4972638;28;20051;-64
2022/01/18 03:54:53;;;;;;;43.47;4.45;;;6.70;99.90;;;;;;4975650;28;20564;-64
2022/01/18 03:57:19;;;;;;;41.10;6.05;;;6.70;99.90;;;;;;4957606;28;20045;-64
2022/01/18 03:59:45;;;;;;;33.15;4.75;;;6.70;99.90;;;;;;4974338;28;20066;-64
2022/01/18 04:02:12;;;;;;;39.08;4.88;;;6.70;99.90;;;;;;4975151;28;20070;-64
2022/01/18 04:04:39;;;;;;;48.58;5.22;;;6.70;99.90;;;;;;4969030;28;20043;-64
2022/01/18 04:07:06;;;;;;;31.65;4.78;;;6.70;99.90;;;;;;4971456;28;20516;-64
2022/01/18 04:09:33;;;;;;;33.45;4.80;;;6.60;99.90;;;;;;4974349;28;20044;-64
2022/01/18 04:11:59;;;;;;;25.00;3.40;;;6.60;99.90;;;;;;4968809;28;20066;-64
2022/01/18 04:14:25;;;;;;;29.60;3.50;;;6.60;99.90;;;;;;4967991;28;20050;-64
2022/01/18 04:28:01;;;;;;;23.52;3.80;;;6.70;99.90;;;;;;4967812;28;20077;-64
2022/01/18 04:30:27;;;;;;;34.40;4.00;;;6.70;99.90;;;;;;4968966;28;20041;-64
2022/01/18 04:32:53;;;;;;;22.20;3.72;;;6.70;99.90;;;;;;4967338;28;21010;-64
2022/01/18 04:35:19;;;;;;;29.27;4.35;;;6.70;99.90;;;;;;4967882;28;20046;-64
2022/01/18 04:37:46;;;;;;;21.08;2.80;;;6.70;99.90;;;;;;4968314;28;20490;-64
2022/01/18 04:40:15;;;;;;;19.00;3.22;;;6.70;99.90;;;;;;4968134;28;20126;-64
2022/01/18 04:50:45;;;;;;;26.02;2.90;;;6.60;99.90;;;;;;4976995;28;20225;-64
2022/01/18 04:53:11;;;;;;;28.75;3.78;;;6.60;99.90;;;;;;4967396;28;20043;-64
2022/01/18 04:55:37;;;;;;;27.15;3.13;;;6.60;99.90;;;;;;4966984;28;20337;-64
2022/01/18 04:58:03;;;;;;;22.17;2.65;;;6.60;99.90;;;;;;4967427;28;20058;-64
2022/01/18 05:00:30;;;;;;;24.25;3.58;;;6.50;99.90;;;;;;4977538;28;20034;-64
2022/01/18 05:02:56;;;;;;;22.00;3.47;;;6.50;99.90;;;;;;4967170;28;20035;-64
2022/01/18 05:05:25;;;;;;;22.10;3.30;;;6.50;99.90;;;;;;4967246;28;20054;-64
2022/01/18 05:07:53;;;;;;;24.65;3.55;;;6.50;99.90;;;;;;4967833;28;20046;-64
2022/01/18 05:10:22;;;;;;;20.08;3.75;;;6.50;99.90;;;;;;4967171;28;20516;-64
2022/01/18 05:12:49;;;;;;;19.38;3.25;;;6.50;99.90;;;;;;4966830;28;20524;-64
2022/01/18 05:23:25;;;;;;;17.15;3.08;;;6.50;99.90;;;;;;4954964;28;20129;-64
2022/01/18 05:25:51;;;;;;;18.23;2.65;;;6.50;99.90;;;;;;4967908;28;20134;-64
2022/01/18 05:28:16;;;;;;;24.73;2.92;;;6.50;99.90;;;;;;4966257;28;20042;-64
2022/01/18 05:30:42;;;;;;;20.33;2.90;;;6.50;99.90;;;;;;4955076;28;20049;-64
2022/01/18 05:33:09;;;;;;;17.35;2.70;;;6.50;99.90;;;;;;4968698;28;20085;-64
2022/01/18 05:35:35;;;;;;;16.90;2.78;;;6.50;99.90;;;;;;4966946;28;20062;-63
2022/01/18 05:38:01;;;;;;;31.30;2.38;;;6.50;99.90;;;;;;4966789;28;20039;-64
2022/01/18 05:40:27;;;;;;;21.55;2.63;;;6.50;99.90;;;;;;4966968;28;20089;-65
2022/01/18 05:42:53;;;;;;;23.42;2.25;;;6.60;99.90;;;;;;4973000;28;20051;-64
2022/01/18 05:45:19;;;;;;;17.08;2.08;;;6.60;99.90;;;;;;4966472;28;20046;-64
2022/01/18 05:47:45;;;;;;;21.33;3.60;;;6.60;99.90;;;;;;4967553;28;20055;-64
2022/01/18 05:50:14;;;;;;;21.98;2.65;;;6.60;99.90;;;;;;4949143;28;20078;-64
2022/01/18 05:52:40;;;;;;;11.02;2.83;;;6.50;99.90;;;;;;4950381;28;20456;-64
2022/01/18 05:55:08;;;;;;;21.38;2.95;;;6.50;99.90;;;;;;4967190;28;20042;-64
2022/01/18 05:57:34;;;;;;;20.40;2.75;;;6.60;99.90;;;;;;4967060;28;20039;-64
2022/01/18 06:00:05;;;;;;;19.35;3.55;;;6.60;99.90;;;;;;4949724;28;20069;-64
2022/01/18 06:07:42;;;;;;;29.58;4.38;;;6.60;99.90;;;;;;4958584;28;20086;-64
2022/01/18 06:10:08;;;;;;;23.25;4.10;;;6.60;99.90;;;;;;4970903;28;20145;-64
2022/01/18 06:12:33;;;;;;;18.95;3.88;;;6.60;99.90;;;;;;4973182;28;20555;-64
2022/01/18 06:15:00;;;;;;;13.43;2.10;;;6.60;99.90;;;;;;4970776;28;20043;-64
2022/01/18 06:17:26;;;;;;;16.50;2.10;;;6.60;99.90;;;;;;4970430;28;20054;-64
2022/01/18 06:19:51;;;;;;;14.10;2.35;;;6.60;99.90;;;;;;4970251;28;20776;-64
2022/01/18 06:22:18;;;;;;;14.75;1.92;;;6.60;99.90;;;;;;4953730;28;20069;-64
2022/01/18 06:24:44;;;;;;;18.80;2.22;;;6.60;99.90;;;;;;4970996;28;20069;-64
2022/01/18 06:27:10;;;;;;;15.82;1.90;;;6.60;99.90;;;;;;4953359;28;20050;-64
2022/01/18 06:29:37;;;;;;;15.82;2.08;;;6.60;99.90;;;;;;4952378;28;20054;-64
2022/01/18 06:32:04;;;;;;;18.13;2.70;;;6.60;99.90;;;;;;4962706;28;20046;-64
2022/01/18 06:34:31;;;;;;;15.68;1.85;;;6.60;99.90;;;;;;4952010;28;20448;-65
2022/01/18 06:36:56;;;;;;;4.43;1.02;;;6.60;99.90;;;;;;4951704;28;20035;-64
2022/01/18 06:39:24;;;;;;;10.13;1.92;;;6.60;99.90;;;;;;4952761;28;20045;-64
2022/01/18 06:41:49;;;;;;;7.10;1.13;;;6.60;99.90;;;;;;4967849;28;20216;-64
2022/01/18 06:44:15;;;;;;;10.98;1.42;;;6.60;99.90;;;;;;4977602;28;20501;-64
2022/01/18 06:46:42;;;;;;;12.77;1.42;;;6.60;99.90;;;;;;4969262;28;20047;-65
2022/01/18 06:49:07;;;;;;;8.43;0.77;;;6.60;99.90;;;;;;4970216;28;20397;-64
2022/01/18 06:51:34;;;;;;;5.32;0.82;;;6.60;99.90;;;;;;4968440;28;19926;-64
2022/01/18 06:54:00;;;;;;;4.32;0.68;;;6.60;99.90;;;;;;4951005;28;20046;-64
2022/01/18 06:56:26;;;;;;;6.43;0.70;;;6.60;99.90;;;;;;4954586;28;20038;-64
2022/01/18 06:58:53;;;;;;;4.97;0.70;;;6.60;99.90;;;;;;4955484;28;20047;-64
2022/01/18 07:01:19;;;;;;;8.40;1.40;;;6.50;99.90;;;;;;4964251;28;20489;-64
2022/01/18 07:03:47;;;;;;;13.18;1.55;;;6.60;99.90;;;;;;4966284;28;20039;-64
2022/01/18 07:06:13;;;;;;;13.05;1.98;;;6.50;99.90;;;;;;4961289;28;20592;-64
2022/01/18 07:08:38;;;;;;;14.75;2.05;;;6.50;99.90;;;;;;4950493;28;20391;-64
2022/01/18 07:11:06;;;;;;;11.55;1.75;;;6.50;99.90;;;;;;4969389;28;20042;-64
2022/01/18 07:13:32;;;;;;;15.70;1.80;;;6.50;99.90;;;;;;4969590;28;20074;-64
2022/01/18 07:15:58;;;;;;;10.25;1.67;;;6.50;99.90;;;;;;4979141;28;20598;-64
2022/01/18 07:18:24;;;;;;;14.88;1.73;;;6.50;99.90;;;;;;4969508;28;20827;-64
2022/01/18 07:20:52;;;;;;;22.08;2.75;;;6.40;99.90;;;;;;4969165;28;20038;-64
2022/01/18 07:23:18;;;;;;;14.73;2.17;;;6.40;99.90;;;;;;4956842;28;20123;-64
2022/01/18 07:25:46;;;;;;;19.00;2.40;;;6.40;99.90;;;;;;4952374;28;20039;-64
2022/01/18 07:28:15;;;;;;;18.55;3.33;;;6.40;99.90;;;;;;4936294;28;20890;-64
2022/01/18 07:30:41;;;;;;;25.65;2.33;;;6.40;99.90;;;;;;4968962;28;20046;-64
2022/01/18 07:33:08;;;;;;;16.67;2.70;;;6.40;99.90;;;;;;4969145;28;20122;-64
2022/01/18 07:35:35;;;;;;;27.17;2.58;;;6.40;99.90;;;;;;4970563;28;20055;-64
2022/01/18 07:38:05;;;;;;;24.80;2.40;;;6.40;99.90;;;;;;4954643;28;20089;-64
2022/01/18 07:40:32;;;;;;;22.02;2.20;;;6.30;99.90;;;;;;4958345;28;20049;-64
2022/01/18 07:43:00;;;;;;;23.25;2.60;;;6.30;99.90;;;;;;4973531;28;20113;-64
2022/01/18 07:45:28;;;;;;;16.35;2.20;;;6.30;99.90;;;;;;4951845;28;20055;-64
2022/01/18 07:47:54;;;;;;;18.80;2.25;;;6.20;99.90;;;;;;4972289;28;20086;-64
2022/01/18 07:50:21;;;;;;;15.50;2.53;;;6.20;99.90;;;;;;4968365;28;20528;-64
2022/01/18 07:52:48;;;;;;;25.20;2.20;;;6.20;99.90;;;;;;4936427;28;20539;-64
2022/01/18 07:55:14;;;;;;;20.35;2.20;;;6.20;99.90;;;;;;4968116;28;20488;-64
2022/01/18 07:57:43;;;;;;;18.75;2.10;;;6.20;99.90;;;;;;4977120;28;20050;-64
2022/01/18 08:00:10;;;;;;;17.77;2.30;;;6.20;99.90;;;;;;4972448;28;20466;-64
2022/01/18 08:02:37;;;;;;;18.13;2.40;;;6.20;99.90;;;;;;4967579;28;20038;-64
2022/01/18 08:05:07;;;;;;;14.23;2.33;;;6.10;99.90;;;;;;4949282;28;20497;-64
2022/01/18 08:07:34;;;;;;;17.10;2.53;;;6.20;99.90;;;;;;4950371;28;20054;-64
2022/01/18 08:09:59;;;;;;;22.73;3.13;;;6.10;99.90;;;;;;4969178;28;20125;-64
2022/01/18 08:12:26;;;;;;;19.98;2.70;;;6.10;99.90;;;;;;4950230;28;20125;-64
2022/01/18 08:14:54;;;;;;;15.48;2.47;;;6.20;99.90;;;;;;4976521;28;20165;-64
2022/01/18 08:17:22;;;;;;;22.65;2.83;;;6.20;99.90;;;;;;4967582;28;20043;-65
2022/01/18 08:19:48;;;;;;;12.57;2.22;;;6.20;99.90;;;;;;4962970;28;20047;-64
2022/01/18 08:22:14;;;;;;;22.50;2.50;;;6.20;99.90;;;;;;4966177;28;20046;-64
2022/01/18 08:24:41;;;;;;;21.58;3.35;;;6.20;99.90;;;;;;4961688;28;20929;-64
2022/01/18 08:27:07;;;;;;;14.55;2.60;;;6.20;99.90;;;;;;4947925;28;20039;-64
2022/01/18 08:29:34;;;;;;;16.63;2.45;;;6.30;99.90;;;;;;4966909;28;20794;-64
2022/01/18 08:32:00;;;;;;;15.52;1.90;;;6.30;99.90;;;;;;4961070;28;20071;-64
2022/01/18 08:34:26;;;;;;;20.40;2.67;;;6.30;99.90;;;;;;4967756;28;20070;-64
2022/01/18 08:36:51;;;;;;;15.65;2.40;;;6.30;99.90;;;;;;4962940;28;20453;-64
2022/01/18 08:39:18;;;;;;;11.52;2.22;;;6.30;99.90;;;;;;4965693;28;20086;-64
2022/01/18 08:41:44;;;;;;;15.20;2.72;;;6.30;99.90;;;;;;4967243;28;20090;-64
2022/01/18 08:44:10;;;;;;;19.23;2.28;;;6.40;99.90;;;;;;4966849;28;20039;-64
2022/01/18 08:46:35;;;;;;;16.38;1.83;;;6.40;99.90;;;;;;4965146;28;20196;-64
2022/01/18 08:49:05;;;;;;;16.63;2.65;;;6.40;99.90;;;;;;4949894;28;20080;-64
2022/01/18 08:51:31;;;;;;;15.88;2.40;;;6.40;99.90;;;;;;4937951;28;20112;-64
2022/01/18 08:53:57;;;;;;;17.60;2.35;;;6.40;99.90;;;;;;4960217;28;20051;-64
2022/01/18 08:56:23;;;;;;;11.40;2.28;;;6.50;99.90;;;;;;4968176;28;20043;-64
2022/01/18 08:58:50;;;;;;;17.00;2.40;;;6.50;99.90;;;;;;4966505;28;20567;-64
2022/01/18 09:01:17;;;;;;;14.52;2.72;;;6.50;99.90;;;;;;4966703;28;20073;-64
2022/01/18 09:03:43;;;;;;;14.50;2.45;;;6.60;99.90;;;;;;4965600;28;20039;-64
2022/01/18 09:06:12;;;;;;;12.05;2.10;;;6.60;99.90;;;;;;4967763;28;20074;-64
2022/01/18 09:08:41;;;;;;;9.00;1.60;;;6.60;99.90;;;;;;4967906;28;20046;-64
2022/01/18 09:11:11;;;;;;;15.30;2.35;;;6.60;99.90;;;;;;4976733;28;20046;-64
2022/01/18 09:13:37;;;;;;;;;;;6.70;99.90;;;;;;4967684;28;20050;-64
2022/01/18 09:16:06;;;;;;;11.85;1.90;;;6.70;99.90;;;;;;4950044;28;20056;-64
2022/01/18 09:18:32;;;;;;;11.73;1.83;;;6.70;99.90;;;;;;4967492;28;20101;-64
2022/01/18 09:20:58;;;;;;;10.13;1.92;;;6.80;99.90;;;;;;4966965;28;20090;-64
2022/01/18 09:23:24;;;;;;;11.85;1.92;;;6.80;99.90;;;;;;4967707;28;20473;-64
2022/01/18 09:25:50;;;;;;;16.17;2.13;;;6.80;99.90;;;;;;4966022;28;20062;-64
2022/01/18 09:28:16;;;;;;;15.85;2.35;;;6.80;99.90;;;;;;4949991;28;20034;-64
2022/01/18 09:30:42;;;;;;;15.38;2.15;;;6.90;99.90;;;;;;4948941;28;20161;-64
2022/01/18 09:33:08;;;;;;;7.68;1.70;;;6.90;99.90;;;;;;4964963;28;20133;-64
2022/01/18 09:35:36;;;;;;;16.77;2.63;;;6.90;99.90;;;;;;4957027;28;20047;-64
2022/01/18 09:38:03;;;;;;;8.35;1.55;;;7.00;99.90;;;;;;4965407;28;20398;-64
2022/01/18 09:40:30;;;;;;;20.38;2.88;;;7.10;99.90;;;;;;4948763;28;20417;-64
2022/01/18 09:43:00;;;;;;;9.63;2.10;;;7.10;99.90;;;;;;4965147;28;20046;-64
2022/01/18 09:45:28;;;;;;;14.40;1.80;;;7.20;99.90;;;;;;4968967;28;20050;-64
2022/01/18 09:47:57;;;;;;;15.55;2.35;;;7.20;99.90;;;;;;4965318;28;20046;-64
2022/01/18 09:50:29;;;;;;;15.80;2.42;;;7.30;99.90;;;;;;4948711;28;20334;-64
2022/01/18 09:52:58;;;;;;;9.10;1.75;;;7.30;99.90;;;;;;4963005;28;20057;-64
2022/01/18 09:55:26;;;;;;;15.02;2.72;;;7.40;99.90;;;;;;4950874;28;20050;-64
2022/01/18 09:57:54;;;;;;;21.20;2.53;;;7.40;99.90;;;;;;4949092;28;20043;-64
2022/01/18 10:00:21;;;;;;;16.48;2.38;;;7.50;99.90;;;;;;4965901;28;20028;-64
2022/01/18 10:02:48;;;;;;;14.35;3.10;;;7.50;99.90;;;;;;4953691;28;20046;-64
2022/01/18 10:05:48;;;;;;;14.60;2.40;;;7.50;99.90;;;;;;4952111;28;20031;-64
2022/01/18 10:08:15;;;;;;;;;;;7.60;99.90;;;;;;4921915;28;20059;-64
2022/01/18 10:10:43;;;;;;;15.10;1.98;;;7.60;99.90;;;;;;4950099;28;20017;-64
2022/01/18 10:13:19;;;;;;;10.13;1.73;;;7.70;99.90;;;;;;4948580;28;20446;-64
2022/01/18 10:15:59;;;;;;;16.33;2.60;;;7.70;99.90;;;;;;4966661;28;20438;-64
2022/01/18 10:18:43;;;;;;;20.08;2.63;;;7.70;99.90;;;;;;4966756;28;20422;-64
2022/01/18 10:21:11;;;;;;;11.55;2.60;;;7.70;99.90;;;;;;4949036;28;20058;-64
2022/01/18 10:23:37;;;;;;;20.05;2.55;;;7.80;99.90;;;;;;4950897;28;20085;-64
2022/01/18 10:26:24;;;;;;;10.02;2.47;;;7.80;99.90;;;;;;4965745;28;20097;-64
2022/01/18 10:29:05;;;;;;;13.85;3.25;;;7.70;99.90;;;;;;4966265;28;20515;-64
2022/01/18 10:31:42;;;;;;;16.35;2.50;;;7.70;99.90;;;;;;4964351;28;20121;-64
2022/01/18 10:34:12;;;;;;;14.02;2.70;;;7.70;99.90;;;;;;4965964;28;20528;-64
2022/01/18 10:36:53;;;;;;;14.52;2.65;;;7.80;99.90;;;;;;4974685;28;20050;-64
2022/01/18 10:39:24;;;;;;;14.88;2.83;;;7.80;99.90;;;;;;4965492;28;20051;-64
2022/01/18 10:41:51;;;;;;;15.23;2.83;;;7.80;99.90;;;;;;4961700;28;20041;-65
2022/01/18 10:44:18;;;;;;;18.23;2.42;;;7.80;99.90;;;;;;4964226;28;20042;-64
2022/01/18 10:46:54;;;;;;;17.92;3.13;;;7.80;99.90;;;;;;4963920;28;20070;-64
2022/01/18 10:49:33;;;;;;;8.82;2.13;;;7.90;99.90;;;;;;4957293;28;20510;-64
2022/01/18 10:52:05;;;;;;;14.23;2.65;;;7.90;99.90;;;;;;4966443;28;20459;-64
2022/01/18 10:54:38;;;;;;;17.67;2.50;;;7.90;99.90;;;;;;4966923;28;20058;-64
2022/01/18 10:57:06;;;;;;;16.55;2.40;;;7.90;99.90;;;;;;4947981;28;20063;-64
2022/01/18 10:59:33;;;;;;;13.80;2.20;;;7.90;99.90;;;;;;4968155;28;20050;-64
2022/01/18 11:02:10;;;;;;;14.15;2.13;;;8.00;99.90;;;;;;4968691;28;20410;-64
2022/01/18 11:04:38;;;;;;;7.68;2.10;;;8.00;99.90;;;;;;4968506;28;20054;-64
2022/01/18 11:07:04;;;;;;;15.75;2.15;;;8.00;99.90;;;;;;4965467;28;20034;-64
2022/01/18 11:09:32;;;;;;;13.93;2.00;;;8.10;99.90;;;;;;4967260;28;20057;-64
2022/01/18 11:11:58;;;;;;;13.45;2.58;;;8.10;99.90;;;;;;4966604;28;20426;-64
2022/01/18 11:14:25;;;;;;;9.15;2.05;;;8.10;99.90;;;;;;4965398;28;20046;-64
2022/01/18 11:16:55;;;;;;;12.23;1.88;;;8.10;99.90;;;;;;4934902;28;20408;-64
2022/01/18 11:21:49;;;;;;;11.52;2.42;;;8.00;99.90;;;;;;4950216;28;20035;-64
2022/01/18 11:24:16;;;;;;;7.38;1.63;;;8.00;99.90;;;;;;4952171;28;20039;-64
2022/01/18 11:26:44;;;;;;;10.80;2.33;;;8.00;99.90;;;;;;4966553;28;20035;-64
2022/01/18 11:29:11;;;;;;;16.17;1.90;;;8.00;99.90;;;;;;4966387;28;20051;-64
2022/01/18 11:31:38;;;;;;;16.65;1.83;;;8.00;99.90;;;;;;4961263;28;20157;-64
2022/01/18 11:34:07;;;;;;;13.82;1.63;;;8.10;99.90;;;;;;4963879;28;20245;-64
2022/01/18 11:36:39;;;;;;;16.50;2.20;;;8.10;99.90;;;;;;4966107;28;20043;-64
2022/01/18 11:39:07;;;;;;;21.75;2.65;;;8.00;99.90;;;;;;4969170;28;20552;-64
2022/01/18 11:41:35;;;;;;;12.80;2.10;;;7.90;99.90;;;;;;4970322;28;20042;-64
2022/01/18 11:44:16;;;;;;;11.38;2.00;;;7.90;99.90;;;;;;4967014;28;20058;-65
2022/01/18 11:46:51;;;;;;;12.18;2.10;;;7.90;99.90;;;;;;4965552;28;20508;-64
2022/01/18 11:49:18;;;;;;;14.57;2.17;;;7.90;99.90;;;;;;4967336;28;20045;-64
2022/01/18 11:51:58;;;;;;;17.23;2.38;;;7.80;99.90;;;;;;4966985;28;20062;-64
2022/01/18 11:57:21;;;;;;;17.73;1.70;;;7.90;99.90;;;;;;4960062;28;20134;-64
2022/01/18 11:59:54;;;;;;;21.30;2.25;;;7.90;99.90;;;;;;4968755;28;20501;-64
2022/01/18 12:02:37;;;;;;;21.30;3.55;;;7.90;99.90;;;;;;4963452;28;20051;-64
2022/01/18 12:05:19;;;;;;;8.10;1.83;;;7.90;99.90;;;;;;4966893;28;20050;-64
2022/01/18 12:07:44;;;;;;;11.73;2.00;;;8.00;99.90;;;;;;4963384;28;20122;-64
2022/01/18 12:10:32;;;;;;;17.52;1.88;;;8.00;99.90;;;;;;4967523;28;20129;-64
2022/01/18 12:13:01;;;;;;;16.70;3.13;;;7.90;99.90;;;;;;4967976;28;20086;-64
2022/01/18 12:15:32;;;;;;;12.57;1.88;;;7.80;99.90;;;;;;4970166;28;20042;-64
2022/01/18 12:18:13;;;;;;;13.65;2.55;;;7.70;99.90;;;;;;4967867;28;20097;-65
2022/01/18 12:20:42;;;;;;;;;;;7.80;99.90;;;;;;4969226;28;20093;-65
2022/01/18 12:23:18;;;;;;;18.93;3.13;;;7.80;99.90;;;;;;4966989;28;19926;-64
2022/01/18 12:26:28;;;;;;;12.80;2.83;;;7.70;99.90;;;;;;4968451;28;20294;-64
2022/01/18 12:29:23;;;;;;;14.17;3.13;;;7.70;99.90;;;;;;4978239;28;20038;-64
2022/01/18 12:32:07;;;;;;;14.10;2.83;;;7.80;99.90;;;;;;4956807;28;20046;-64
2022/01/18 12:34:47;;;;;;;14.27;3.17;;;7.70;99.90;;;;;;4967338;28;20536;-64
2022/01/18 12:37:24;;;;;;;21.13;3.43;;;7.70;99.90;;;;;;4967992;28;20051;-64
2022/01/18 12:39:50;;;;;;;14.48;3.03;;;7.70;99.90;;;;;;4949839;28;20333;-64
2022/01/18 12:44:20;;;;;;;16.35;2.90;;;7.80;99.90;;;;;;4973836;28;20070;-64
2022/01/18 12:45:08;;;;;;;9.75;1.85;;;7.80;99.90;;;;;;4956200;28;20043;-64
2022/01/18 12:47:36;;;;;;;14.85;2.88;;;7.70;99.90;;;;;;4967557;28;20516;-64
2022/01/18 12:50:05;;;;;;;15.02;3.75;;;7.70;99.90;;;;;;4966417;28;20105;-64
2022/01/18 12:52:54;;;;;;;19.33;3.63;;;7.70;99.90;;;;;;4969645;28;20061;-64
2022/01/18 12:55:45;;;;;;;13.93;2.38;;;7.60;99.90;;;;;;4932136;29;20103;-64
2022/01/18 12:58:20;;;;;;;10.38;2.88;;;7.60;99.90;;;;;;4950087;28;20389;-64
2022/01/18 13:01:06;;;;;;;17.05;3.17;;;7.60;99.90;;;;;;4960199;28;20071;-64
2022/01/18 13:03:42;;;;;;;21.25;3.38;;;7.60;99.90;;;;;;4962554;28;20078;-64
2022/01/18 13:06:18;;;;;;;16.10;2.95;;;7.60;99.90;;;;;;4962558;28;20057;-64
2022/01/18 13:08:54;;;;;;;20.38;3.22;;;7.50;99.90;;;;;;4966890;28;20497;-64
2022/01/18 13:11:28;;;;;;;15.98;2.33;;;7.50;99.90;;;;;;4956693;28;20398;-64
2022/01/18 13:14:03;;;;;;;22.80;3.63;;;7.50;99.90;;;;;;4967005;28;20089;-64
2022/01/18 13:24:46;;;;;;;12.80;2.70;;;7.40;99.90;;;;;;4966808;28;20046;-64
2022/01/18 13:27:27;;;;;;;15.15;2.30;;;7.30;99.90;;;;;;4965315;28;20453;-64
2022/01/18 13:30:05;;;;;;;13.43;2.20;;;7.30;99.90;;;;;;4949424;28;20062;-64
2022/01/18 13:32:33;;;;;;;11.20;2.35;;;7.20;99.90;;;;;;4967295;28;20051;-64
2022/01/18 13:35:02;;;;;;;12.43;2.90;;;7.20;99.90;;;;;;4962758;28;20046;-64
2022/01/18 13:37:31;;;;;;;13.43;2.58;;;7.20;99.90;;;;;;4964193;28;20085;-64
2022/01/18 13:39:59;;;;;;;13.13;2.42;;;7.20;99.90;;;;;;4962790;28;20486;-64
2022/01/18 13:46:17;;;;;;;16.10;2.55;;;7.10;99.90;;;;;;4929559;28;20050;-64
2022/01/18 13:49:52;;;;;;;11.25;1.83;;;7.10;99.90;;;;;;5024676;23;20047;-63
2022/01/18 13:52:29;;;;;;;9.43;2.05;;;7.20;99.90;;;;;;4936934;29;20047;-63
2022/01/18 13:58:02;;;;;;;19.33;3.00;;;7.10;99.90;;;;;;4953626;23;20055;-63
2022/01/18 14:00:31;;;;;;;16.25;3.67;;;7.10;99.90;;;;;;4949116;28;20044;-63
2022/01/18 14:03:36;;;;;;;18.13;3.95;;;7.10;99.90;;;;;;4947013;29;20051;-63
2022/01/18 14:06:44;;;;;;;15.55;3.67;;;7.10;99.90;;;;;;4944479;28;20043;-63
2022/01/18 14:09:12;;;;;;;15.68;3.50;;;7.20;99.90;;;;;;4862485;29;20049;-63
2022/01/18 14:11:39;;;;;;;15.80;2.88;;;7.20;99.90;;;;;;4932744;29;20129;-63
2022/01/18 14:14:18;;;;;;;11.98;3.70;;;7.10;99.90;;;;;;4932588;29;20589;-63
2022/01/18 14:16:57;;;;;;;17.52;3.30;;;7.00;99.90;;;;;;4948087;29;20050;-63
2022/01/18 14:19:34;;;;;;;16.15;3.60;;;7.00;99.90;;;;;;4948749;28;20083;-63
2022/01/18 14:22:39;;;;;;;23.65;4.03;;;7.00;99.90;;;;;;4922065;29;20058;-63
2022/01/18 14:25:08;;;;;;;13.95;3.72;;;7.00;99.90;;;;;;4945118;29;20691;-63
2022/01/18 14:27:43;;;;;;;18.83;3.90;;;6.90;99.90;;;;;;4951335;28;20520;-63
2022/01/18 14:30:29;;;;;;;14.98;3.80;;;6.90;99.90;;;;;;4951759;29;20051;-63
2022/01/18 14:32:56;;;;;;;13.88;3.97;;;6.80;99.90;;;;;;4932316;29;20043;-63
2022/01/18 14:35:24;;;;;;;17.08;3.10;;;6.80;99.90;;;;;;4952102;28;20058;-63